createdAt,value
2018-09-24T00:00:04.637Z,67.06
2018-09-24T00:00:35.717Z,66.77
2018-09-24T00:01:06.831Z,67.12
2018-09-24T00:01:37.941Z,66.99
2018-09-24T00:02:09.088Z,67.27
2018-09-24T00:02:40.185Z,66.63
2018-09-24T00:03:11.292Z,67.54
2018-09-24T00:03:42.426Z,67.35
2018-09-24T00:04:13.558Z,67.06
2018-09-24T00:04:44.681Z,67.58
2018-09-24T00:05:15.855Z,67.26
2018-09-24T00:05:47.030Z,66.91
2018-09-24T00:06:18.135Z,66.99
2018-09-24T00:06:49.255Z,67.47
2018-09-24T00:07:20.383Z,67.00
2018-09-24T00:07:51.495Z,67.44
2018-09-24T00:08:22.629Z,67.69
2018-09-24T00:08:53.771Z,67.94
2018-09-24T00:09:24.869Z,67.43
2018-09-24T00:09:55.988Z,67.67
2018-09-24T00:10:27.186Z,67.26
2018-09-24T00:10:58.291Z,68.20
2018-09-24T00:11:29.419Z,67.19
2018-09-24T00:12:00.528Z,67.23
2018-09-24T00:12:31.703Z,68.30
2018-09-24T00:13:02.883Z,68.01
2018-09-24T00:13:34.051Z,67.91
2018-09-24T00:14:05.194Z,68.17
2018-09-24T00:14:36.360Z,68.06
2018-09-24T00:15:07.517Z,68.63
2018-09-24T00:15:38.648Z,68.83
2018-09-24T00:16:09.753Z,67.59
2018-09-24T00:16:40.882Z,68.10
2018-09-24T00:17:12.010Z,68.47
2018-09-24T00:17:43.139Z,67.97
2018-09-24T00:18:14.270Z,68.15
2018-09-24T00:18:45.398Z,68.40
2018-09-24T00:19:16.502Z,68.02
2018-09-24T00:19:47.690Z,68.34
2018-09-24T00:20:18.869Z,67.79
2018-09-24T00:20:49.967Z,67.97
2018-09-24T00:21:21.075Z,68.59
2018-09-24T00:21:52.236Z,68.60
2018-09-24T00:22:23.357Z,68.22
2018-09-24T00:22:54.517Z,67.96
2018-09-24T00:23:25.651Z,67.68
2018-09-24T00:23:56.761Z,69.00
2018-09-24T00:24:27.905Z,68.25
2018-09-24T00:24:59.089Z,68.35
2018-09-24T00:25:30.210Z,68.62
2018-09-24T00:26:01.327Z,68.73
2018-09-24T00:26:32.439Z,68.99
2018-09-24T00:27:03.556Z,69.57
2018-09-24T00:27:34.685Z,69.00
2018-09-24T00:28:05.827Z,69.38
2018-09-24T00:28:36.967Z,68.98
2018-09-24T00:29:08.100Z,69.49
2018-09-24T00:29:39.211Z,69.50
2018-09-24T00:30:10.336Z,69.68
2018-09-24T00:30:41.540Z,69.54
2018-09-24T00:31:12.672Z,69.86
2018-09-24T00:31:43.867Z,69.92
2018-09-24T00:32:14.982Z,70.11
2018-09-24T00:32:46.095Z,69.48
2018-09-24T00:33:17.273Z,69.87
2018-09-24T00:33:48.441Z,69.66
2018-09-24T00:34:19.564Z,69.35
2018-09-24T00:34:50.680Z,69.76
2018-09-24T00:35:21.821Z,69.99
2018-09-24T00:35:52.973Z,69.85
2018-09-24T00:36:24.127Z,70.07
2018-09-24T00:36:55.248Z,70.55
2018-09-24T00:37:26.374Z,69.98
2018-09-24T00:37:57.526Z,70.43
2018-09-24T00:38:28.741Z,70.20
2018-09-24T00:38:59.916Z,69.99
2018-09-24T00:39:31.059Z,70.24
2018-09-24T00:40:02.193Z,70.09
2018-09-24T00:40:33.334Z,70.68
2018-09-24T00:41:04.500Z,70.26
2018-09-24T00:41:35.647Z,70.18
2018-09-24T00:42:06.753Z,69.83
2018-09-24T00:42:37.928Z,69.98
2018-09-24T00:43:09.050Z,70.81
2018-09-24T00:43:40.207Z,70.76
2018-09-24T00:44:11.316Z,71.18
2018-09-24T00:44:42.426Z,71.08
2018-09-24T00:45:13.549Z,69.97
2018-09-24T00:45:44.784Z,69.91
2018-09-24T00:46:15.908Z,70.09
2018-09-24T00:46:47.059Z,70.59
2018-09-24T00:47:18.155Z,71.30
2018-09-24T00:47:49.323Z,71.17
2018-09-24T00:48:20.561Z,71.00
2018-09-24T00:48:51.725Z,70.41
2018-09-24T00:49:22.908Z,71.72
2018-09-24T00:49:54.029Z,71.02
2018-09-24T00:50:25.142Z,71.46
2018-09-24T00:50:56.243Z,71.54
2018-09-24T00:51:27.381Z,71.77
2018-09-24T00:51:58.555Z,71.65
2018-09-24T00:52:29.675Z,71.30
2018-09-24T00:53:00.782Z,71.26
2018-09-24T00:53:31.962Z,71.50
2018-09-24T00:54:03.082Z,70.86
2018-09-24T00:54:34.208Z,71.14
2018-09-24T00:55:05.347Z,70.54
2018-09-24T00:55:36.535Z,70.74
2018-09-24T00:56:07.682Z,71.47
2018-09-24T00:56:38.802Z,71.66
2018-09-24T00:57:09.931Z,71.27
2018-09-24T00:57:41.050Z,71.71
2018-09-24T00:58:12.179Z,71.69
2018-09-24T00:58:43.299Z,71.54
2018-09-24T00:59:14.393Z,71.40
2018-09-24T00:59:45.570Z,71.47
2018-09-24T01:00:16.750Z,71.88
2018-09-24T01:00:47.870Z,71.96
2018-09-24T01:01:18.991Z,72.63
2018-09-24T01:01:50.163Z,72.56
2018-09-24T01:02:21.375Z,72.38
2018-09-24T01:02:52.500Z,72.06
2018-09-24T01:03:23.628Z,72.49
2018-09-24T01:03:54.763Z,71.64
2018-09-24T01:04:25.942Z,72.25
2018-09-24T01:04:57.129Z,72.14
2018-09-24T01:05:28.293Z,71.85
2018-09-24T01:05:59.416Z,71.67
2018-09-24T01:06:30.644Z,71.44
2018-09-24T01:07:01.827Z,71.78
2018-09-24T01:07:33.012Z,71.97
2018-09-24T01:08:04.119Z,72.32
2018-09-24T01:08:35.304Z,71.97
2018-09-24T01:09:06.427Z,71.79
2018-09-24T01:09:37.542Z,71.96
2018-09-24T01:10:08.700Z,71.69
2018-09-24T01:10:39.803Z,72.18
2018-09-24T01:11:10.929Z,71.99
2018-09-24T01:11:42.110Z,71.70
2018-09-24T01:12:13.269Z,72.34
2018-09-24T01:12:44.382Z,72.10
2018-09-24T01:13:15.554Z,72.25
2018-09-24T01:13:46.699Z,71.48
2018-09-24T01:14:17.817Z,71.59
2018-09-24T01:14:48.979Z,71.45
2018-09-24T01:15:20.137Z,71.81
2018-09-24T01:15:51.272Z,72.24
2018-09-24T01:16:22.400Z,72.25
2018-09-24T01:16:53.558Z,71.62
2018-09-24T01:17:24.684Z,72.49
2018-09-24T01:17:55.827Z,71.84
2018-09-24T01:18:26.967Z,72.18
2018-09-24T01:18:58.093Z,72.62
2018-09-24T01:19:29.196Z,72.14
2018-09-24T01:20:00.356Z,72.59
2018-09-24T01:20:31.558Z,72.45
2018-09-24T01:21:02.678Z,72.55
2018-09-24T01:21:33.784Z,72.22
2018-09-24T01:22:04.960Z,72.54
2018-09-24T01:22:36.076Z,71.60
2018-09-24T01:23:07.242Z,72.35
2018-09-24T01:23:38.348Z,72.06
2018-09-24T01:24:09.483Z,73.10
2018-09-24T01:24:40.609Z,73.24
2018-09-24T01:25:11.784Z,72.73
2018-09-24T01:25:42.926Z,73.19
2018-09-24T01:26:14.088Z,71.71
2018-09-24T01:26:45.186Z,72.99
2018-09-24T01:27:16.353Z,72.49
2018-09-24T01:27:47.469Z,73.10
2018-09-24T01:28:18.587Z,73.03
2018-09-24T01:28:49.691Z,72.78
2018-09-24T01:29:20.812Z,72.09
2018-09-24T01:29:51.923Z,71.30
2018-09-24T01:30:23.057Z,72.63
2018-09-24T01:30:54.180Z,72.84
2018-09-24T01:31:25.333Z,72.91
2018-09-24T01:31:56.450Z,72.42
2018-09-24T01:32:27.551Z,72.54
2018-09-24T01:32:58.684Z,72.83
2018-09-24T01:33:29.868Z,72.00
2018-09-24T01:34:01.111Z,72.09
2018-09-24T01:34:32.287Z,72.63
2018-09-24T01:35:03.404Z,71.96
2018-09-24T01:35:34.518Z,72.61
2018-09-24T01:36:05.700Z,72.33
2018-09-24T01:36:36.814Z,73.07
2018-09-24T01:37:07.923Z,72.71
2018-09-24T01:37:39.052Z,73.04
2018-09-24T01:38:10.171Z,72.91
2018-09-24T01:38:41.324Z,71.92
2018-09-24T01:39:12.432Z,72.02
2018-09-24T01:39:43.592Z,72.03
2018-09-24T01:40:14.748Z,72.28
2018-09-24T01:40:45.862Z,71.92
2018-09-24T01:41:16.994Z,72.46
2018-09-24T01:41:48.171Z,72.75
2018-09-24T01:42:19.303Z,72.77
2018-09-24T01:42:50.448Z,73.04
2018-09-24T01:43:21.553Z,73.42
2018-09-24T01:43:52.715Z,72.84
2018-09-24T01:44:23.837Z,72.78
2018-09-24T01:44:54.985Z,72.91
2018-09-24T01:45:26.093Z,73.04
2018-09-24T01:45:57.252Z,72.85
2018-09-24T01:46:28.379Z,72.87
2018-09-24T01:46:59.487Z,73.40
2018-09-24T01:47:30.603Z,73.27
2018-09-24T01:48:01.722Z,72.87
2018-09-24T01:48:32.864Z,73.52
2018-09-24T01:49:04.033Z,73.25
2018-09-24T01:49:35.188Z,73.90
2018-09-24T01:50:06.335Z,73.86
2018-09-24T01:50:37.481Z,74.01
2018-09-24T01:51:08.595Z,74.07
2018-09-24T01:51:39.707Z,74.21
2018-09-24T01:52:10.838Z,73.84
2018-09-24T01:52:41.986Z,73.60
2018-09-24T01:53:13.206Z,74.18
2018-09-24T01:53:44.311Z,73.50
2018-09-24T01:54:15.494Z,73.70
2018-09-24T01:54:46.607Z,73.92
2018-09-24T01:55:17.742Z,74.38
2018-09-24T01:55:48.915Z,73.44
2018-09-24T01:56:20.014Z,74.21
2018-09-24T01:56:51.121Z,74.28
2018-09-24T01:57:22.257Z,73.84
2018-09-24T01:57:53.425Z,73.56
2018-09-24T01:58:24.584Z,73.40
2018-09-24T01:58:55.807Z,73.42
2018-09-24T01:59:26.992Z,74.01
2018-09-24T01:59:58.155Z,73.52
2018-09-24T02:00:29.275Z,73.29
2018-09-24T02:01:00.488Z,74.17
2018-09-24T02:01:31.658Z,74.25
2018-09-24T02:02:02.780Z,74.27
2018-09-24T02:02:33.910Z,73.76
2018-09-24T02:03:05.044Z,74.08
2018-09-24T02:03:36.161Z,73.68
2018-09-24T02:04:07.351Z,73.55
2018-09-24T02:04:38.479Z,74.14
2018-09-24T02:05:09.587Z,73.95
2018-09-24T02:05:40.759Z,73.92
2018-09-24T02:06:11.869Z,73.61
2018-09-24T02:06:42.988Z,74.75
2018-09-24T02:07:14.104Z,74.09
2018-09-24T02:07:45.278Z,74.64
2018-09-24T02:08:16.404Z,74.81
2018-09-24T02:08:47.522Z,73.91
2018-09-24T02:09:18.680Z,74.40
2018-09-24T02:09:49.791Z,74.07
2018-09-24T02:10:20.897Z,74.23
2018-09-24T02:10:52.002Z,73.92
2018-09-24T02:11:23.121Z,74.14
2018-09-24T02:11:54.252Z,74.24
2018-09-24T02:12:25.374Z,74.17
2018-09-24T02:12:56.494Z,74.21
2018-09-24T02:13:27.633Z,74.20
2018-09-24T02:13:58.798Z,74.30
2018-09-24T02:14:30.869Z,74.52
2018-09-24T02:15:01.994Z,74.81
2018-09-24T02:15:33.153Z,75.22
2018-09-24T02:16:04.295Z,75.02
2018-09-24T02:16:35.422Z,74.35
2018-09-24T02:17:06.542Z,74.98
2018-09-24T02:17:37.703Z,74.74
2018-09-24T02:18:08.857Z,74.55
2018-09-24T02:18:39.964Z,74.57
2018-09-24T02:19:11.184Z,74.77
2018-09-24T02:19:42.362Z,74.99
2018-09-24T02:20:13.467Z,75.14
2018-09-24T02:20:44.590Z,75.34
2018-09-24T02:21:15.709Z,75.61
2018-09-24T02:21:46.828Z,74.85
2018-09-24T02:22:17.936Z,74.68
2018-09-24T02:22:49.125Z,74.02
2018-09-24T02:23:20.241Z,74.25
2018-09-24T02:23:51.345Z,74.65
2018-09-24T02:24:22.507Z,74.40
2018-09-24T02:24:53.660Z,74.12
2018-09-24T02:25:24.838Z,75.10
2018-09-24T02:25:55.982Z,75.28
2018-09-24T02:26:27.120Z,73.86
2018-09-24T02:26:58.248Z,75.24
2018-09-24T02:27:29.379Z,75.20
2018-09-24T02:28:00.503Z,75.12
2018-09-24T02:28:31.651Z,75.14
2018-09-24T02:29:02.774Z,75.41
2018-09-24T02:29:33.888Z,74.83
2018-09-24T02:30:05.123Z,75.12
2018-09-24T02:30:36.276Z,75.17
2018-09-24T02:31:07.395Z,75.87
2018-09-24T02:31:38.513Z,75.70
2018-09-24T02:32:09.625Z,75.61
2018-09-24T02:32:40.756Z,76.30
2018-09-24T02:33:11.876Z,75.75
2018-09-24T02:33:42.991Z,75.66
2018-09-24T02:34:14.180Z,75.91
2018-09-24T02:34:45.327Z,75.90
2018-09-24T02:35:16.507Z,76.19
2018-09-24T02:35:47.612Z,76.46
2018-09-24T02:36:18.800Z,76.70
2018-09-24T02:36:49.939Z,76.26
2018-09-24T02:37:21.037Z,76.96
2018-09-24T02:37:52.146Z,76.82
2018-09-24T02:38:23.269Z,76.88
2018-09-24T02:38:54.415Z,76.19
2018-09-24T02:39:25.527Z,76.36
2018-09-24T02:39:56.656Z,76.08
2018-09-24T02:40:27.798Z,76.48
2018-09-24T02:40:58.890Z,76.60
2018-09-24T02:41:30.042Z,76.69
2018-09-24T02:42:01.158Z,76.50
2018-09-24T02:42:32.336Z,76.16
2018-09-24T02:43:03.482Z,75.90
2018-09-24T02:43:34.653Z,76.36
2018-09-24T02:44:05.766Z,76.93
2018-09-24T02:44:36.885Z,77.06
2018-09-24T02:45:07.993Z,77.02
2018-09-24T02:45:39.160Z,76.82
2018-09-24T02:46:10.306Z,76.67
2018-09-24T02:46:41.454Z,76.25
2018-09-24T02:47:12.588Z,76.79
2018-09-24T02:47:43.731Z,76.91
2018-09-24T02:48:14.842Z,76.71
2018-09-24T02:48:45.966Z,76.33
2018-09-24T02:49:17.081Z,76.39
2018-09-24T02:49:48.196Z,76.84
2018-09-24T02:50:19.314Z,76.78
2018-09-24T02:50:50.424Z,77.03
2018-09-24T02:51:21.566Z,76.87
2018-09-24T02:51:52.796Z,77.43
2018-09-24T02:52:23.908Z,77.00
2018-09-24T02:52:55.080Z,76.94
2018-09-24T02:53:26.256Z,77.09
2018-09-24T02:53:57.373Z,76.26
2018-09-24T02:54:28.500Z,76.49
2018-09-24T02:54:59.616Z,76.49
2018-09-24T02:55:30.848Z,76.51
2018-09-24T02:56:01.957Z,76.19
2018-09-24T02:56:33.112Z,77.08
2018-09-24T02:57:04.248Z,77.45
2018-09-24T02:57:35.382Z,77.17
2018-09-24T02:58:06.485Z,76.79
2018-09-24T02:58:37.610Z,76.71
2018-09-24T02:59:08.748Z,76.93
2018-09-24T02:59:39.869Z,77.18
2018-09-24T03:00:11.066Z,77.41
2018-09-24T03:00:42.184Z,77.00
2018-09-24T03:01:13.344Z,77.05
2018-09-24T03:01:44.421Z,77.13
2018-09-24T03:02:15.591Z,77.58
2018-09-24T03:02:46.701Z,77.74
2018-09-24T03:03:17.826Z,77.85
2018-09-24T03:03:49.000Z,77.63
2018-09-24T03:04:20.126Z,77.72
2018-09-24T03:04:51.243Z,77.72
2018-09-24T03:05:22.475Z,77.11
2018-09-24T03:05:53.610Z,77.58
2018-09-24T03:06:24.735Z,77.34
2018-09-24T03:06:55.907Z,77.24
2018-09-24T03:07:27.050Z,77.67
2018-09-24T03:07:58.182Z,78.36
2018-09-24T03:08:29.298Z,77.82
2018-09-24T03:09:00.480Z,78.38
2018-09-24T03:09:31.670Z,78.26
2018-09-24T03:10:02.848Z,78.42
2018-09-24T03:10:33.970Z,78.36
2018-09-24T03:11:05.140Z,77.75
2018-09-24T03:11:36.293Z,77.36
2018-09-24T03:12:07.405Z,77.04
2018-09-24T03:12:38.527Z,77.21
2018-09-24T03:13:09.652Z,77.79
2018-09-24T03:13:40.771Z,77.80
2018-09-24T03:14:11.943Z,77.49
2018-09-24T03:14:43.075Z,77.79
2018-09-24T03:15:14.311Z,77.36
2018-09-24T03:15:45.443Z,77.41
2018-09-24T03:16:16.562Z,77.37
2018-09-24T03:16:47.665Z,77.58
2018-09-24T03:17:18.773Z,78.17
2018-09-24T03:17:49.925Z,77.81
2018-09-24T03:18:21.040Z,77.83
2018-09-24T03:18:52.170Z,77.81
2018-09-24T03:19:23.351Z,78.38
2018-09-24T03:19:54.532Z,78.21
2018-09-24T03:20:25.671Z,78.31
2018-09-24T03:20:56.785Z,78.45
2018-09-24T03:21:27.950Z,78.12
2018-09-24T03:21:59.153Z,78.25
2018-09-24T03:22:30.356Z,78.24
2018-09-24T03:23:01.490Z,78.40
2018-09-24T03:23:32.683Z,78.40
2018-09-24T03:24:03.801Z,78.20
2018-09-24T03:24:34.943Z,78.26
2018-09-24T03:25:06.079Z,78.82
2018-09-24T03:25:37.191Z,79.02
2018-09-24T03:26:08.365Z,79.29
2018-09-24T03:26:39.540Z,78.74
2018-09-24T03:27:10.791Z,79.46
2018-09-24T03:27:41.908Z,79.24
2018-09-24T03:28:13.029Z,79.20
2018-09-24T03:28:44.143Z,79.36
2018-09-24T03:29:15.252Z,78.86
2018-09-24T03:29:46.404Z,79.20
2018-09-24T03:30:17.536Z,78.82
2018-09-24T03:30:48.679Z,78.82
2018-09-24T03:31:19.800Z,79.37
2018-09-24T03:31:50.970Z,79.38
2018-09-24T03:32:22.122Z,78.95
2018-09-24T03:32:53.233Z,79.28
2018-09-24T03:33:24.357Z,78.87
2018-09-24T03:33:55.551Z,79.03
2018-09-24T03:34:26.671Z,78.88
2018-09-24T03:34:57.807Z,79.10
2018-09-24T03:35:28.961Z,79.26
2018-09-24T03:36:00.087Z,79.41
2018-09-24T03:36:31.196Z,79.39
2018-09-24T03:37:02.353Z,79.26
2018-09-24T03:37:33.514Z,79.15
2018-09-24T03:38:04.656Z,79.20
2018-09-24T03:38:35.783Z,79.77
2018-09-24T03:39:06.957Z,79.82
2018-09-24T03:39:38.090Z,79.97
2018-09-24T03:40:09.198Z,80.14
2018-09-24T03:40:40.312Z,79.93
2018-09-24T03:41:11.466Z,79.25
2018-09-24T03:41:42.612Z,79.25
2018-09-24T03:42:13.733Z,78.79
2018-09-24T03:42:44.847Z,78.63
2018-09-24T03:43:16.009Z,78.92
2018-09-24T03:43:47.101Z,78.56
2018-09-24T03:44:18.199Z,78.38
2018-09-24T03:44:49.311Z,78.12
2018-09-24T03:45:20.428Z,78.29
2018-09-24T03:45:51.624Z,77.87
2018-09-24T03:46:22.726Z,78.27
2018-09-24T03:46:53.877Z,78.82
2018-09-24T03:47:25.043Z,78.05
2018-09-24T03:47:56.155Z,78.66
2018-09-24T03:48:27.389Z,79.00
2018-09-24T03:48:58.546Z,78.91
2018-09-24T03:49:29.668Z,78.59
2018-09-24T03:50:00.836Z,79.13
2018-09-24T03:50:31.967Z,79.57
2018-09-24T03:51:03.078Z,79.08
2018-09-24T03:51:34.174Z,78.88
2018-09-24T03:52:05.272Z,79.80
2018-09-24T03:52:36.377Z,80.44
2018-09-24T03:53:07.495Z,79.89
2018-09-24T03:53:38.719Z,80.43
2018-09-24T03:54:09.837Z,80.21
2018-09-24T03:54:40.955Z,80.47
2018-09-24T03:55:12.173Z,79.92
2018-09-24T03:55:43.364Z,80.84
2018-09-24T03:56:14.568Z,80.38
2018-09-24T03:56:45.684Z,80.76
2018-09-24T03:57:16.798Z,80.87
2018-09-24T03:57:47.908Z,81.08
2018-09-24T03:58:19.037Z,80.83
2018-09-24T03:58:50.216Z,81.53
2018-09-24T03:59:21.322Z,81.11
2018-09-24T03:59:52.492Z,81.20
2018-09-24T04:00:23.595Z,81.67
2018-09-24T04:00:54.717Z,81.86
2018-09-24T04:01:25.857Z,82.15
2018-09-24T04:01:56.968Z,82.21
2018-09-24T04:02:28.098Z,82.43
2018-09-24T04:02:59.210Z,82.07
2018-09-24T04:03:30.322Z,82.50
2018-09-24T04:04:01.470Z,82.37
2018-09-24T04:04:32.617Z,82.44
2018-09-24T04:05:03.737Z,82.45
2018-09-24T04:05:34.870Z,81.98
2018-09-24T04:06:06.031Z,81.87
2018-09-24T04:06:37.158Z,81.88
2018-09-24T04:07:08.270Z,81.91
2018-09-24T04:07:39.389Z,82.08
2018-09-24T04:08:10.511Z,82.02
2018-09-24T04:08:41.704Z,81.88
2018-09-24T04:09:12.848Z,81.65
2018-09-24T04:09:44.048Z,81.54
2018-09-24T04:10:15.190Z,81.49
2018-09-24T04:10:46.333Z,81.70
2018-09-24T04:11:17.438Z,81.57
2018-09-24T04:11:48.566Z,82.31
2018-09-24T04:12:19.734Z,82.34
2018-09-24T04:12:50.852Z,81.99
2018-09-24T04:13:21.972Z,81.81
2018-09-24T04:13:53.111Z,81.91
2018-09-24T04:14:24.250Z,82.78
2018-09-24T04:14:55.362Z,81.67
2018-09-24T04:15:26.518Z,82.86
2018-09-24T04:15:57.631Z,82.23
2018-09-24T04:16:28.755Z,81.95
2018-09-24T04:16:59.876Z,82.50
2018-09-24T04:17:30.980Z,81.91
2018-09-24T04:18:02.137Z,81.47
2018-09-24T04:18:33.247Z,81.80
2018-09-24T04:19:04.365Z,81.60
2018-09-24T04:19:35.562Z,81.92
2018-09-24T04:20:06.671Z,81.94
2018-09-24T04:20:37.817Z,82.34
2018-09-24T04:21:08.948Z,81.93
2018-09-24T04:21:40.049Z,82.64
2018-09-24T04:22:11.172Z,82.43
2018-09-24T04:22:42.279Z,82.05
2018-09-24T04:23:13.389Z,82.22
2018-09-24T04:23:44.486Z,82.61
2018-09-24T04:24:15.582Z,81.87
2018-09-24T04:24:46.752Z,82.16
2018-09-24T04:25:17.874Z,81.81
2018-09-24T04:25:49.014Z,81.22
2018-09-24T04:26:20.227Z,80.99
2018-09-24T04:26:51.276Z,81.55
2018-09-24T04:27:22.379Z,80.83
2018-09-24T04:27:53.482Z,80.67
2018-09-24T04:28:24.641Z,81.31
2018-09-24T04:28:55.779Z,81.14
2018-09-24T04:29:26.939Z,80.45
2018-09-24T04:29:58.076Z,80.24
2018-09-24T04:30:29.198Z,79.69
2018-09-24T04:31:00.324Z,79.38
2018-09-24T04:31:31.443Z,79.44
2018-09-24T04:32:02.620Z,79.39
2018-09-24T04:32:33.728Z,79.19
2018-09-24T04:33:04.863Z,79.03
2018-09-24T04:33:35.997Z,78.27
2018-09-24T04:34:07.167Z,78.51
2018-09-24T04:34:38.320Z,78.05
2018-09-24T04:35:10.344Z,77.79
2018-09-24T04:35:41.486Z,76.82
2018-09-24T04:36:12.618Z,77.06
2018-09-24T04:36:43.737Z,76.87
2018-09-24T04:37:14.849Z,76.96
2018-09-24T04:37:45.959Z,76.22
2018-09-24T04:38:17.074Z,76.33
2018-09-24T04:38:48.197Z,75.98
2018-09-24T04:39:19.372Z,75.63
2018-09-24T04:39:50.541Z,75.65
2018-09-24T04:40:21.639Z,75.38
2018-09-24T04:40:52.755Z,75.30
2018-09-24T04:41:23.909Z,75.13
2018-09-24T04:41:55.046Z,75.16
2018-09-24T04:42:26.217Z,74.34
2018-09-24T04:42:57.373Z,74.72
2018-09-24T04:43:28.482Z,73.91
2018-09-24T04:43:59.606Z,73.59
2018-09-24T04:44:30.786Z,73.97
2018-09-24T04:45:01.899Z,74.08
2018-09-24T04:45:33.095Z,73.17
2018-09-24T04:46:04.229Z,73.21
2018-09-24T04:46:35.345Z,73.46
2018-09-24T04:47:06.462Z,73.36
2018-09-24T04:47:37.577Z,73.70
2018-09-24T04:48:08.721Z,72.57
2018-09-24T04:48:39.849Z,72.83
2018-09-24T04:49:11.006Z,72.49
2018-09-24T04:49:42.128Z,72.06
2018-09-24T04:50:13.273Z,72.47
2018-09-24T04:50:44.459Z,72.18
2018-09-24T04:51:15.583Z,71.97
2018-09-24T04:51:46.745Z,72.12
2018-09-24T04:52:17.863Z,71.65
2018-09-24T04:52:49.059Z,71.83
2018-09-24T04:53:20.220Z,71.80
2018-09-24T04:53:51.381Z,71.51
2018-09-24T04:54:22.509Z,71.51
2018-09-24T04:54:53.610Z,70.83
2018-09-24T04:55:24.752Z,70.99
2018-09-24T04:55:55.879Z,71.23
2018-09-24T04:56:26.992Z,71.19
2018-09-24T04:56:58.090Z,71.50
2018-09-24T04:57:29.237Z,71.62
2018-09-24T04:58:00.361Z,71.19
2018-09-24T04:58:31.486Z,71.12
2018-09-24T04:59:02.618Z,71.59
2018-09-24T04:59:33.723Z,71.07
2018-09-24T05:00:04.867Z,71.63
2018-09-24T05:00:36.047Z,71.18
2018-09-24T05:01:07.175Z,71.52
2018-09-24T05:01:38.346Z,70.97
2018-09-24T05:02:09.481Z,71.47
2018-09-24T05:02:40.600Z,72.17
2018-09-24T05:03:11.706Z,71.73
2018-09-24T05:03:42.871Z,71.55
2018-09-24T05:04:13.982Z,72.12
2018-09-24T05:04:45.157Z,71.69
2018-09-24T05:05:16.303Z,71.76
2018-09-24T05:05:47.421Z,71.68
2018-09-24T05:06:18.529Z,70.80
2018-09-24T05:06:49.693Z,71.30
2018-09-24T05:07:20.886Z,71.20
2018-09-24T05:07:52.010Z,70.63
2018-09-24T05:08:23.151Z,70.50
2018-09-24T05:08:54.278Z,70.77
2018-09-24T05:09:25.450Z,70.73
2018-09-24T05:09:56.564Z,70.47
2018-09-24T05:10:27.734Z,70.14
2018-09-24T05:10:58.882Z,70.31
2018-09-24T05:11:30.014Z,70.37
2018-09-24T05:12:01.151Z,70.52
2018-09-24T05:12:32.272Z,70.22
2018-09-24T05:13:03.376Z,70.36
2018-09-24T05:13:34.478Z,70.62
2018-09-24T05:14:05.594Z,70.22
2018-09-24T05:14:36.698Z,70.72
2018-09-24T05:15:07.803Z,70.11
2018-09-24T05:15:38.938Z,70.38
2018-09-24T05:16:10.170Z,70.00
2018-09-24T05:16:41.372Z,69.62
2018-09-24T05:17:12.491Z,69.84
2018-09-24T05:17:43.691Z,69.32
2018-09-24T05:18:14.807Z,69.11
2018-09-24T05:18:45.919Z,69.08
2018-09-24T05:19:17.044Z,68.55
2018-09-24T05:19:48.215Z,68.32
2018-09-24T05:20:19.368Z,69.10
2018-09-24T05:20:50.580Z,68.51
2018-09-24T05:21:21.713Z,68.51
2018-09-24T05:21:52.851Z,68.83
2018-09-24T05:22:23.991Z,68.09
2018-09-24T05:22:55.200Z,68.34
2018-09-24T05:23:26.325Z,67.81
2018-09-24T05:23:57.439Z,67.56
2018-09-24T05:24:28.565Z,67.56
2018-09-24T05:24:59.711Z,67.22
2018-09-24T05:25:30.901Z,67.10
2018-09-24T05:26:02.010Z,66.52
2018-09-24T05:26:33.132Z,66.82
2018-09-24T05:27:04.269Z,66.24
2018-09-24T05:27:35.382Z,65.98
2018-09-24T05:28:06.588Z,66.26
2018-09-24T05:28:37.706Z,65.92
2018-09-24T05:29:08.825Z,65.74
2018-09-24T05:29:39.984Z,66.24
2018-09-24T05:30:11.095Z,65.67
2018-09-24T05:30:42.208Z,65.54
2018-09-24T05:31:13.322Z,65.88
2018-09-24T05:31:44.426Z,65.75
2018-09-24T05:32:15.624Z,65.62
2018-09-24T05:32:46.791Z,65.25
2018-09-24T05:33:17.917Z,65.45
2018-09-24T05:33:49.092Z,64.72
2018-09-24T05:34:20.371Z,65.38
2018-09-24T05:34:51.472Z,65.21
2018-09-24T05:35:22.637Z,65.69
2018-09-24T05:35:53.834Z,64.97
2018-09-24T05:36:25.035Z,65.66
2018-09-24T05:36:56.152Z,65.48
2018-09-24T05:37:27.299Z,66.01
2018-09-24T05:37:58.419Z,65.43
2018-09-24T05:38:29.536Z,65.54
2018-09-24T05:39:00.641Z,64.92
2018-09-24T05:39:31.745Z,65.42
2018-09-24T05:40:02.868Z,65.71
2018-09-24T05:40:33.986Z,65.76
2018-09-24T05:41:05.122Z,65.67
2018-09-24T05:41:36.239Z,66.10
2018-09-24T05:42:07.373Z,65.74
2018-09-24T05:42:38.611Z,66.02
2018-09-24T05:43:09.799Z,66.73
2018-09-24T05:43:40.999Z,66.66
2018-09-24T05:44:12.154Z,66.35
2018-09-24T05:44:43.266Z,66.67
2018-09-24T05:45:14.374Z,66.35
2018-09-24T05:45:45.486Z,65.69
2018-09-24T05:46:16.614Z,66.00
2018-09-24T05:46:47.782Z,66.01
2018-09-24T05:47:19.012Z,65.10
2018-09-24T05:47:50.161Z,64.74
2018-09-24T05:48:21.281Z,65.12
2018-09-24T05:48:52.423Z,65.22
2018-09-24T05:49:23.544Z,64.90
2018-09-24T05:49:54.658Z,63.80
2018-09-24T05:50:25.787Z,63.88
2018-09-24T05:50:56.898Z,63.90
2018-09-24T05:51:28.050Z,63.73
2018-09-24T05:51:59.237Z,63.56
2018-09-24T05:52:30.354Z,63.23
2018-09-24T05:53:01.526Z,63.23
2018-09-24T05:53:32.664Z,62.69
2018-09-24T05:54:03.795Z,63.25
2018-09-24T05:54:34.936Z,63.25
2018-09-24T05:55:06.057Z,62.45
2018-09-24T05:55:37.153Z,62.51
2018-09-24T05:56:08.271Z,62.96
2018-09-24T05:56:39.385Z,62.64
2018-09-24T05:57:10.531Z,62.34
2018-09-24T05:57:41.629Z,63.00
2018-09-24T05:58:12.730Z,62.32
2018-09-24T05:58:43.851Z,61.92
2018-09-24T05:59:14.969Z,61.54
2018-09-24T05:59:46.123Z,61.68
2018-09-24T06:00:17.231Z,61.15
2018-09-24T06:00:48.357Z,61.28
2018-09-24T06:01:19.453Z,61.27
2018-09-24T06:01:50.564Z,61.85
2018-09-24T06:02:21.721Z,61.39
2018-09-24T06:02:52.826Z,61.38
2018-09-24T06:03:24.023Z,61.09
2018-09-24T06:03:55.133Z,60.92
2018-09-24T06:04:26.243Z,61.05
2018-09-24T06:04:57.361Z,61.01
2018-09-24T06:05:28.504Z,60.83
2018-09-24T06:05:59.613Z,60.72
2018-09-24T06:06:30.732Z,60.50
2018-09-24T06:07:01.856Z,60.63
2018-09-24T06:07:33.033Z,60.19
2018-09-24T06:08:04.131Z,60.56
2018-09-24T06:08:35.266Z,60.05
2018-09-24T06:09:06.366Z,59.88
2018-09-24T06:09:37.520Z,59.77
2018-09-24T06:10:08.671Z,59.17
2018-09-24T06:10:39.826Z,59.56
2018-09-24T06:11:10.910Z,59.05
2018-09-24T06:11:42.020Z,59.57
2018-09-24T06:12:13.126Z,59.49
2018-09-24T06:12:44.249Z,59.58
2018-09-24T06:13:15.401Z,59.59
2018-09-24T06:13:46.622Z,58.90
2018-09-24T06:14:17.663Z,59.49
2018-09-24T06:14:48.796Z,59.87
2018-09-24T06:15:19.899Z,59.18
2018-09-24T06:15:51.004Z,59.79
2018-09-24T06:16:22.109Z,59.82
2018-09-24T06:16:53.261Z,59.08
2018-09-24T06:17:24.362Z,58.96
2018-09-24T06:17:55.462Z,59.50
2018-09-24T06:18:26.590Z,59.58
2018-09-24T06:18:57.719Z,59.71
2018-09-24T06:19:28.909Z,59.88
2018-09-24T06:20:00.085Z,59.23
2018-09-24T06:20:31.190Z,59.73
2018-09-24T06:21:02.331Z,59.06
2018-09-24T06:21:33.431Z,59.54
2018-09-24T06:22:04.541Z,60.48
2018-09-24T06:22:35.635Z,60.15
2018-09-24T06:23:06.741Z,60.43
2018-09-24T06:23:37.857Z,60.41
2018-09-24T06:24:08.965Z,60.34
2018-09-24T06:24:40.067Z,60.36
2018-09-24T06:25:11.166Z,59.99
2018-09-24T06:25:42.267Z,59.30
2018-09-24T06:26:13.406Z,59.90
2018-09-24T06:26:44.520Z,59.69
2018-09-24T06:27:15.642Z,59.03
2018-09-24T06:27:46.804Z,58.81
2018-09-24T06:28:17.982Z,58.92
2018-09-24T06:28:49.097Z,59.40
2018-09-24T06:29:20.227Z,59.88
2018-09-24T06:29:51.329Z,59.33
2018-09-24T06:30:22.453Z,59.31
2018-09-24T06:30:53.577Z,58.91
2018-09-24T06:31:24.717Z,58.84
2018-09-24T06:31:55.819Z,59.00
2018-09-24T06:32:26.932Z,58.79
2018-09-24T06:32:58.030Z,58.69
2018-09-24T06:33:29.135Z,58.66
2018-09-24T06:34:00.235Z,58.75
2018-09-24T06:34:31.338Z,58.86
2018-09-24T06:35:02.460Z,58.74
2018-09-24T06:35:33.600Z,58.57
2018-09-24T06:36:04.702Z,57.90
2018-09-24T06:36:35.859Z,58.36
2018-09-24T06:37:07.051Z,58.50
2018-09-24T06:37:38.224Z,58.21
2018-09-24T06:38:09.341Z,58.17
2018-09-24T06:38:40.505Z,57.43
2018-09-24T06:39:11.655Z,58.03
2018-09-24T06:39:42.803Z,58.07
2018-09-24T06:40:13.951Z,57.97
2018-09-24T06:40:45.066Z,58.34